AZU099 SBSL-SBSV
Flight info
| Callsign | AZU099 |
|---|---|
| Flight time | 1h 46m |
| Altitude | 39000 |
| Route | ELIET UZ20 TNA DCT DORMU |
| Aircraft | A343/H-SDE2E3FGHIJ4J5M1RWXY/LB1D1 |
Departure
| Time | 2026-04-22 14:06 |
|---|---|
| Airport | Marechal Cunha Machado International Airport (SBSL) |
Arrival
| Time | 2026-04-22 15:52 |
|---|---|
| Airport | Deputado Luiz Eduardo Magalhães International Airport (SBSV) |
| Time | Latitude | Longitude | Altitude | Speed | Heading |
|---|---|---|---|---|---|
| 2026-04-22 13:52 | -2.58506 | -44.23802 | 167 ft | 0 kts | 340° |
| 2026-04-22 13:56 | -2.58512 | -44.23799 | 167 ft | 2 kts | 342° |
| 2026-04-22 13:56 | -2.58527 | -44.23794 | 180 ft | 2 kts | 351° |
| 2026-04-22 13:56 | -2.58544 | -44.23791 | 162 ft | 2 kts | 15° |
| 2026-04-22 13:56 | -2.58560 | -44.23796 | 166 ft | 2 kts | 66° |
| 2026-04-22 13:57 | -2.58564 | -44.23802 | 166 ft | 0 kts | 69° |
| 2026-04-22 13:59 | -2.58560 | -44.23792 | 165 ft | 5 kts | 69° |
| 2026-04-22 13:59 | -2.58538 | -44.23731 | 165 ft | 13 kts | 70° |
| 2026-04-22 13:59 | -2.58498 | -44.23618 | 165 ft | 21 kts | 69° |
| 2026-04-22 14:00 | -2.58445 | -44.23478 | 164 ft | 11 kts | 68° |
| 2026-04-22 14:00 | -2.58447 | -44.23432 | 164 ft | 6 kts | 112° |
| 2026-04-22 14:00 | -2.58487 | -44.23397 | 164 ft | 9 kts | 154° |
| 2026-04-22 14:00 | -2.58550 | -44.23404 | 164 ft | 10 kts | 209° |
| 2026-04-22 14:01 | -2.58619 | -44.23462 | 165 ft | 16 kts | 221° |
| 2026-04-22 14:01 | -2.58721 | -44.23552 | 165 ft | 23 kts | 219° |
| 2026-04-22 14:01 | -2.58864 | -44.23667 | 164 ft | 30 kts | 219° |
| 2026-04-22 14:01 | -2.59039 | -44.23809 | 162 ft | 35 kts | 219° |
| 2026-04-22 14:02 | -2.59243 | -44.23973 | 162 ft | 40 kts | 220° |
| 2026-04-22 14:02 | -2.59454 | -44.24142 | 163 ft | 37 kts | 218° |
| 2026-04-22 14:02 | -2.59614 | -44.24280 | 163 ft | 18 kts | 236° |
| 2026-04-22 14:02 | -2.59631 | -44.24319 | 163 ft | 18 kts | 249° |
| 2026-04-22 14:03 | -2.59655 | -44.24355 | 162 ft | 0 kts | 216° |
| 2026-04-22 14:03 | -2.59656 | -44.24355 | 162 ft | 0 kts | 215° |
| 2026-04-22 14:03 | -2.59658 | -44.24355 | 161 ft | 2 kts | 208° |
| 2026-04-22 14:04 | -2.59678 | -44.24356 | 166 ft | 0 kts | 174° |
| 2026-04-22 14:04 | -2.59679 | -44.24355 | 166 ft | 3 kts | 170° |
| 2026-04-22 14:04 | -2.59688 | -44.24334 | 163 ft | 1 kts | 87° |
| 2026-04-22 14:04 | -2.59681 | -44.24327 | 163 ft | 0 kts | 50° |
| 2026-04-22 14:05 | -2.59659 | -44.24309 | 163 ft | 0 kts | 39° |
| 2026-04-22 14:05 | -2.59410 | -44.24107 | 163 ft | 80 kts | 39° |
| 2026-04-22 14:06 | -2.58761 | -44.23586 | 169 ft | 155 kts | 40° |
| 2026-04-22 14:06 | -2.57800 | -44.22826 | 638 ft | 191 kts | 40° |
| 2026-04-22 14:06 | -2.56780 | -44.22014 | 1745 ft | 183 kts | 40° |
| 2026-04-22 14:06 | -2.55754 | -44.21193 | 2563 ft | 200 kts | 40° |
| 2026-04-22 14:07 | -2.54733 | -44.20147 | 3205 ft | 221 kts | 62° |
| 2026-04-22 14:07 | -2.54417 | -44.18624 | 4055 ft | 233 kts | 97° |
| 2026-04-22 14:07 | -2.55077 | -44.17117 | 4772 ft | 247 kts | 129° |
| 2026-04-22 14:07 | -2.56530 | -44.16135 | 5439 ft | 263 kts | 159° |
| 2026-04-22 14:08 | -2.58383 | -44.15953 | 6215 ft | 273 kts | 180° |
| 2026-04-22 14:08 | -2.60297 | -44.16042 | 7010 ft | 277 kts | 180° |
| 2026-04-22 14:08 | -2.62239 | -44.16033 | 7803 ft | 281 kts | 176° |
| 2026-04-22 14:08 | -2.64201 | -44.15883 | 8605 ft | 285 kts | 172° |
| 2026-04-22 14:09 | -2.66150 | -44.15609 | 9398 ft | 289 kts | 169° |
| 2026-04-22 14:09 | -2.68139 | -44.15223 | 10159 ft | 294 kts | 166° |
| 2026-04-22 14:09 | -2.70187 | -44.14739 | 10586 ft | 312 kts | 164° |
| 2026-04-22 14:09 | -2.72338 | -44.14159 | 10967 ft | 328 kts | 163° |
| 2026-04-22 14:10 | -2.74580 | -44.13502 | 11373 ft | 343 kts | 162° |
| 2026-04-22 14:10 | -2.76903 | -44.12777 | 11800 ft | 356 kts | 160° |
| 2026-04-22 14:10 | -2.79229 | -44.11832 | 12246 ft | 367 kts | 155° |
| 2026-04-22 14:10 | -2.80804 | -44.11091 | 12568 ft | 373 kts | 153° |
| 2026-04-22 14:11 | -2.83154 | -44.09912 | 13066 ft | 382 kts | 152° |
| 2026-04-22 14:11 | -2.85537 | -44.08661 | 13544 ft | 391 kts | 151° |
| 2026-04-22 14:11 | -2.87944 | -44.07359 | 14122 ft | 395 kts | 150° |
| 2026-04-22 14:11 | -2.90331 | -44.06044 | 14706 ft | 398 kts | 150° |
| 2026-04-22 14:12 | -2.92792 | -44.04672 | 15286 ft | 402 kts | 150° |
| 2026-04-22 14:12 | -2.95237 | -44.03297 | 15896 ft | 405 kts | 150° |
| 2026-04-22 14:12 | -2.97700 | -44.01904 | 16488 ft | 408 kts | 149° |
| 2026-04-22 14:12 | -3.00181 | -44.00495 | 17060 ft | 412 kts | 149° |
| 2026-04-22 14:13 | -3.02683 | -43.99072 | 17660 ft | 415 kts | 149° |
| 2026-04-22 14:13 | -3.05207 | -43.97634 | 18237 ft | 419 kts | 149° |
| 2026-04-22 14:13 | -3.07752 | -43.96184 | 18712 ft | 423 kts | 149° |
| 2026-04-22 14:13 | -3.10283 | -43.94741 | 19187 ft | 426 kts | 149° |
| 2026-04-22 14:14 | -3.12865 | -43.93269 | 19661 ft | 429 kts | 149° |
| 2026-04-22 14:14 | -3.15467 | -43.91788 | 20131 ft | 432 kts | 149° |
| 2026-04-22 14:14 | -3.18089 | -43.90299 | 20591 ft | 435 kts | 149° |
| 2026-04-22 14:14 | -3.20730 | -43.88800 | 21027 ft | 438 kts | 149° |
| 2026-04-22 14:15 | -3.23389 | -43.87289 | 21470 ft | 441 kts | 149° |
| 2026-04-22 14:15 | -3.26068 | -43.85767 | 21905 ft | 444 kts | 149° |
| 2026-04-22 14:15 | -3.28765 | -43.84234 | 22331 ft | 447 kts | 149° |
| 2026-04-22 14:15 | -3.31479 | -43.82691 | 22774 ft | 450 kts | 149° |
| 2026-04-22 14:16 | -3.34211 | -43.81137 | 23172 ft | 453 kts | 149° |
| 2026-04-22 14:16 | -3.36962 | -43.79571 | 23584 ft | 456 kts | 149° |
| 2026-04-22 14:16 | -3.39729 | -43.77995 | 23924 ft | 459 kts | 149° |
| 2026-04-22 14:16 | -3.42510 | -43.76411 | 24269 ft | 461 kts | 149° |
| 2026-04-22 14:17 | -3.45307 | -43.74818 | 24622 ft | 464 kts | 149° |
| 2026-04-22 14:17 | -3.48120 | -43.73215 | 24966 ft | 466 kts | 149° |
| 2026-04-22 14:17 | -3.50948 | -43.71601 | 25300 ft | 469 kts | 149° |
| 2026-04-22 14:17 | -3.53792 | -43.69979 | 25634 ft | 472 kts | 149° |
| 2026-04-22 14:18 | -3.56653 | -43.68348 | 25963 ft | 474 kts | 149° |
| 2026-04-22 14:18 | -3.59528 | -43.66705 | 26288 ft | 477 kts | 149° |
| 2026-04-22 14:18 | -3.62419 | -43.65053 | 26627 ft | 480 kts | 149° |
| 2026-04-22 14:18 | -3.65327 | -43.63392 | 26955 ft | 482 kts | 150° |
| 2026-04-22 14:19 | -3.68251 | -43.61723 | 27278 ft | 485 kts | 150° |
| 2026-04-22 14:19 | -3.71208 | -43.60033 | 27600 ft | 488 kts | 150° |
| 2026-04-22 14:19 | -3.74159 | -43.58345 | 27927 ft | 490 kts | 150° |
| 2026-04-22 14:19 | -3.77131 | -43.56645 | 28233 ft | 493 kts | 150° |
| 2026-04-22 14:20 | -3.83112 | -43.53221 | 28804 ft | 498 kts | 150° |
| 2026-04-22 14:20 | -3.86123 | -43.51498 | 29113 ft | 500 kts | 150° |
| 2026-04-22 14:20 | -3.89143 | -43.49768 | 29547 ft | 499 kts | 150° |
| 2026-04-22 14:21 | -3.95112 | -43.46348 | 30373 ft | 496 kts | 150° |
| 2026-04-22 14:21 | -3.98101 | -43.44636 | 30822 ft | 494 kts | 150° |
| 2026-04-22 14:22 | -4.04043 | -43.41231 | 31691 ft | 490 kts | 150° |
| 2026-04-22 14:22 | -4.06997 | -43.39544 | 32133 ft | 488 kts | 150° |
| 2026-04-22 14:22 | -4.12864 | -43.36193 | 33099 ft | 483 kts | 149° |
| 2026-04-22 14:23 | -4.15775 | -43.34531 | 33564 ft | 480 kts | 149° |
| 2026-04-22 14:23 | -4.18675 | -43.32875 | 34004 ft | 479 kts | 149° |
| 2026-04-22 14:23 | -4.21566 | -43.31223 | 34389 ft | 478 kts | 149° |
| 2026-04-22 14:23 | -4.24447 | -43.29575 | 34790 ft | 476 kts | 149° |
| 2026-04-22 14:24 | -4.27317 | -43.27931 | 35201 ft | 474 kts | 149° |
| 2026-04-22 14:24 | -4.30175 | -43.26295 | 35607 ft | 473 kts | 149° |
| 2026-04-22 14:24 | -4.33027 | -43.24661 | 36037 ft | 471 kts | 150° |
| 2026-04-22 14:24 | -4.35862 | -43.23036 | 36472 ft | 469 kts | 149° |
| 2026-04-22 14:25 | -4.38692 | -43.21414 | 36887 ft | 468 kts | 150° |
| 2026-04-22 14:25 | -4.41513 | -43.19797 | 37297 ft | 466 kts | 150° |
| 2026-04-22 14:25 | -4.44325 | -43.18185 | 37719 ft | 465 kts | 150° |
| 2026-04-22 14:25 | -4.47128 | -43.16577 | 38143 ft | 463 kts | 150° |
| 2026-04-22 14:26 | -4.49920 | -43.14974 | 38560 ft | 461 kts | 150° |
| 2026-04-22 14:26 | -4.52666 | -43.13395 | 38791 ft | 451 kts | 150° |
| 2026-04-22 14:26 | -4.55383 | -43.11833 | 38884 ft | 452 kts | 150° |
| 2026-04-22 14:27 | -4.60901 | -43.08659 | 38952 ft | 462 kts | 150° |
| 2026-04-22 14:27 | -4.66491 | -43.05440 | 38969 ft | 462 kts | 150° |
| 2026-04-22 14:28 | -4.72048 | -43.02238 | 38970 ft | 459 kts | 150° |
| 2026-04-22 14:28 | -4.77591 | -42.99044 | 38975 ft | 460 kts | 150° |
| 2026-04-22 14:29 | -4.83152 | -42.95840 | 38978 ft | 462 kts | 150° |
| 2026-04-22 14:29 | -4.88717 | -42.92631 | 38986 ft | 461 kts | 150° |
| 2026-04-22 14:30 | -4.94278 | -42.89425 | 38990 ft | 461 kts | 150° |
| 2026-04-22 14:30 | -4.99834 | -42.86220 | 38990 ft | 461 kts | 150° |
| 2026-04-22 14:31 | -5.05464 | -42.83142 | 38991 ft | 461 kts | 154° |
| 2026-04-22 14:31 | -5.11303 | -42.80487 | 38991 ft | 460 kts | 156° |
| 2026-04-22 14:32 | -5.17172 | -42.77936 | 38994 ft | 459 kts | 156° |
| 2026-04-22 14:32 | -5.23043 | -42.75416 | 38988 ft | 459 kts | 157° |
| 2026-04-22 14:33 | -5.28922 | -42.72903 | 38983 ft | 459 kts | 157° |
| 2026-04-22 14:33 | -5.34796 | -42.70396 | 38977 ft | 458 kts | 157° |
| 2026-04-22 14:34 | -5.40658 | -42.67895 | 38971 ft | 458 kts | 157° |
| 2026-04-22 14:34 | -5.46525 | -42.65392 | 38973 ft | 458 kts | 157° |
| 2026-04-22 14:35 | -5.52353 | -42.62907 | 38971 ft | 458 kts | 157° |
| 2026-04-22 14:35 | -5.58258 | -42.60388 | 38972 ft | 458 kts | 157° |
| 2026-04-22 14:36 | -5.64078 | -42.57905 | 38972 ft | 457 kts | 157° |
| 2026-04-22 14:36 | -5.69937 | -42.55405 | 38973 ft | 458 kts | 157° |
| 2026-04-22 14:37 | -5.75807 | -42.52900 | 38967 ft | 459 kts | 157° |
| 2026-04-22 14:37 | -5.81678 | -42.50394 | 38969 ft | 459 kts | 158° |
| 2026-04-22 14:38 | -5.87547 | -42.47889 | 38976 ft | 458 kts | 158° |
| 2026-04-22 14:38 | -5.93410 | -42.45385 | 38975 ft | 458 kts | 158° |
| 2026-04-22 14:39 | -5.99274 | -42.42883 | 38978 ft | 458 kts | 158° |
| 2026-04-22 14:39 | -6.05142 | -42.40378 | 38977 ft | 458 kts | 158° |
| 2026-04-22 14:40 | -6.13930 | -42.36626 | 38972 ft | 457 kts | 158° |
| 2026-04-22 14:40 | -6.19789 | -42.34122 | 38980 ft | 458 kts | 158° |
| 2026-04-22 14:41 | -6.25651 | -42.31618 | 38977 ft | 458 kts | 158° |
| 2026-04-22 14:41 | -6.31506 | -42.29116 | 38974 ft | 457 kts | 158° |
| 2026-04-22 14:42 | -6.37374 | -42.26609 | 38974 ft | 459 kts | 158° |
| 2026-04-22 14:42 | -6.43265 | -42.24092 | 38974 ft | 460 kts | 158° |
| 2026-04-22 14:43 | -6.49159 | -42.21571 | 38976 ft | 460 kts | 158° |
| 2026-04-22 14:43 | -6.55056 | -42.19047 | 38976 ft | 461 kts | 158° |
| 2026-04-22 14:44 | -6.60960 | -42.16521 | 38983 ft | 461 kts | 158° |
| 2026-04-22 14:44 | -6.66867 | -42.13992 | 38980 ft | 462 kts | 158° |
| 2026-04-22 14:45 | -6.72782 | -42.11460 | 38982 ft | 462 kts | 158° |
| 2026-04-22 14:45 | -6.78705 | -42.08922 | 38983 ft | 463 kts | 158° |
| 2026-04-22 14:46 | -6.84635 | -42.06381 | 38981 ft | 464 kts | 158° |
| 2026-04-22 14:46 | -6.90572 | -42.03838 | 38981 ft | 464 kts | 158° |
| 2026-04-22 14:47 | -6.96521 | -42.01288 | 38982 ft | 465 kts | 158° |
| 2026-04-22 14:47 | -7.02464 | -41.98740 | 38982 ft | 464 kts | 158° |
| 2026-04-22 14:48 | -7.08364 | -41.96208 | 38982 ft | 464 kts | 158° |
| 2026-04-22 14:48 | -7.14305 | -41.93655 | 38983 ft | 464 kts | 158° |
| 2026-04-22 14:49 | -7.20251 | -41.91102 | 38982 ft | 465 kts | 158° |
| 2026-04-22 14:49 | -7.26195 | -41.88547 | 38983 ft | 465 kts | 158° |
| 2026-04-22 14:50 | -7.32147 | -41.85994 | 38980 ft | 465 kts | 158° |
| 2026-04-22 14:50 | -7.38100 | -41.83438 | 38984 ft | 465 kts | 158° |
| 2026-04-22 14:51 | -7.44058 | -41.80879 | 38986 ft | 466 kts | 158° |
| 2026-04-22 14:51 | -7.50016 | -41.78320 | 38981 ft | 466 kts | 158° |
| 2026-04-22 14:52 | -7.55978 | -41.75753 | 38980 ft | 466 kts | 158° |
| 2026-04-22 14:52 | -7.61945 | -41.73190 | 38979 ft | 466 kts | 158° |
| 2026-04-22 14:53 | -7.67912 | -41.70624 | 38982 ft | 466 kts | 158° |
| 2026-04-22 14:53 | -7.73879 | -41.68055 | 38981 ft | 467 kts | 158° |
| 2026-04-22 14:54 | -7.79855 | -41.65483 | 38975 ft | 467 kts | 158° |
| 2026-04-22 14:54 | -7.85791 | -41.62929 | 38979 ft | 467 kts | 158° |
| 2026-04-22 14:55 | -7.91768 | -41.60357 | 38978 ft | 467 kts | 158° |
| 2026-04-22 14:55 | -7.97743 | -41.57782 | 38975 ft | 467 kts | 158° |
| 2026-04-22 14:56 | -8.03717 | -41.55209 | 38978 ft | 467 kts | 158° |
| 2026-04-22 14:56 | -8.09681 | -41.52638 | 38976 ft | 466 kts | 158° |
| 2026-04-22 14:57 | -8.14636 | -41.50502 | 38978 ft | 466 kts | 158° |
| 2026-04-22 14:57 | -8.21597 | -41.47500 | 38976 ft | 465 kts | 158° |
| 2026-04-22 14:58 | -8.26540 | -41.45368 | 38980 ft | 465 kts | 158° |
| 2026-04-22 14:58 | -8.32481 | -41.42802 | 38979 ft | 464 kts | 158° |
| 2026-04-22 14:59 | -8.38417 | -41.40242 | 38980 ft | 464 kts | 158° |
| 2026-04-22 14:59 | -8.44344 | -41.37685 | 38981 ft | 463 kts | 158° |
| 2026-04-22 15:00 | -8.50261 | -41.35128 | 38985 ft | 462 kts | 158° |
| 2026-04-22 15:00 | -8.56175 | -41.32570 | 38987 ft | 462 kts | 158° |
| 2026-04-22 15:01 | -8.62077 | -41.30024 | 38985 ft | 461 kts | 158° |
| 2026-04-22 15:01 | -8.67969 | -41.27478 | 38992 ft | 460 kts | 158° |
| 2026-04-22 15:02 | -8.73850 | -41.24939 | 38992 ft | 459 kts | 158° |
| 2026-04-22 15:02 | -8.79721 | -41.22400 | 38995 ft | 459 kts | 158° |
| 2026-04-22 15:03 | -8.85634 | -41.19841 | 38993 ft | 469 kts | 158° |
| 2026-04-22 15:03 | -8.91704 | -41.17215 | 38989 ft | 477 kts | 158° |
| 2026-04-22 15:04 | -8.97801 | -41.14574 | 38989 ft | 476 kts | 157° |
| 2026-04-22 15:04 | -9.03852 | -41.11951 | 38987 ft | 476 kts | 157° |
| 2026-04-22 15:05 | -9.09969 | -41.09299 | 38985 ft | 476 kts | 157° |
| 2026-04-22 15:05 | -9.16067 | -41.06655 | 38986 ft | 476 kts | 157° |
| 2026-04-22 15:06 | -9.22111 | -41.04031 | 38983 ft | 476 kts | 157° |
| 2026-04-22 15:06 | -9.28196 | -41.01389 | 38988 ft | 476 kts | 157° |
| 2026-04-22 15:07 | -9.34281 | -40.98748 | 38984 ft | 476 kts | 157° |
| 2026-04-22 15:07 | -9.40362 | -40.96106 | 38983 ft | 476 kts | 157° |
| 2026-04-22 15:08 | -9.46444 | -40.93464 | 38984 ft | 476 kts | 157° |
| 2026-04-22 15:08 | -9.52521 | -40.90823 | 38983 ft | 475 kts | 157° |
| 2026-04-22 15:09 | -9.58596 | -40.88181 | 38983 ft | 475 kts | 157° |
| 2026-04-22 15:09 | -9.64672 | -40.85535 | 38993 ft | 475 kts | 157° |
| 2026-04-22 15:10 | -9.70748 | -40.82889 | 38987 ft | 475 kts | 157° |
| 2026-04-22 15:10 | -9.76821 | -40.80243 | 38987 ft | 475 kts | 157° |
| 2026-04-22 15:11 | -9.82897 | -40.77595 | 38986 ft | 475 kts | 157° |
| 2026-04-22 15:11 | -9.88973 | -40.74948 | 38995 ft | 475 kts | 157° |
| 2026-04-22 15:12 | -9.95050 | -40.72299 | 38997 ft | 476 kts | 157° |
| 2026-04-22 15:12 | -10.01135 | -40.69643 | 38998 ft | 476 kts | 157° |
| 2026-04-22 15:13 | -10.07223 | -40.66985 | 39001 ft | 476 kts | 157° |
| 2026-04-22 15:13 | -10.13316 | -40.64326 | 38999 ft | 477 kts | 157° |
| 2026-04-22 15:14 | -10.19410 | -40.61665 | 39004 ft | 477 kts | 157° |
| 2026-04-22 15:14 | -10.25504 | -40.59003 | 39012 ft | 477 kts | 157° |
| 2026-04-22 15:15 | -10.31593 | -40.56342 | 39016 ft | 477 kts | 157° |
| 2026-04-22 15:15 | -10.37684 | -40.53676 | 39019 ft | 477 kts | 157° |
| 2026-04-22 15:16 | -10.43764 | -40.51016 | 39020 ft | 477 kts | 158° |
| 2026-04-22 15:16 | -10.49880 | -40.48339 | 39015 ft | 477 kts | 158° |
| 2026-04-22 15:17 | -10.55982 | -40.45668 | 39025 ft | 478 kts | 158° |
| 2026-04-22 15:17 | -10.61772 | -40.43131 | 39021 ft | 478 kts | 158° |
| 2026-04-22 15:18 | -10.68009 | -40.40399 | 39024 ft | 479 kts | 158° |
| 2026-04-22 15:18 | -10.74093 | -40.37734 | 39022 ft | 480 kts | 158° |
| 2026-04-22 15:19 | -10.80228 | -40.35044 | 39035 ft | 481 kts | 158° |
| 2026-04-22 15:19 | -10.86372 | -40.32348 | 39022 ft | 481 kts | 158° |
| 2026-04-22 15:20 | -10.92517 | -40.29649 | 39021 ft | 481 kts | 158° |
| 2026-04-22 15:20 | -10.98674 | -40.26947 | 39022 ft | 482 kts | 158° |
| 2026-04-22 15:21 | -11.04837 | -40.24240 | 39020 ft | 483 kts | 158° |
| 2026-04-22 15:21 | -11.11005 | -40.21528 | 39017 ft | 483 kts | 158° |
| 2026-04-22 15:22 | -11.17180 | -40.18812 | 39019 ft | 484 kts | 158° |
| 2026-04-22 15:22 | -11.23354 | -40.16096 | 39034 ft | 484 kts | 158° |
| 2026-04-22 15:23 | -11.29550 | -40.13369 | 39024 ft | 485 kts | 158° |
| 2026-04-22 15:23 | -11.35745 | -40.10642 | 39021 ft | 485 kts | 158° |
| 2026-04-22 15:24 | -11.41938 | -40.07915 | 39020 ft | 485 kts | 158° |
| 2026-04-22 15:24 | -11.48139 | -40.05182 | 39023 ft | 486 kts | 158° |
| 2026-04-22 15:25 | -11.54341 | -40.02447 | 39023 ft | 486 kts | 158° |
| 2026-04-22 15:25 | -11.60172 | -39.99057 | 39020 ft | 489 kts | 144° |
| 2026-04-22 15:26 | -11.65501 | -39.94725 | 39034 ft | 490 kts | 142° |
| 2026-04-22 15:26 | -11.68130 | -39.92501 | 38861 ft | 492 kts | 142° |
| 2026-04-22 15:26 | -11.70754 | -39.90250 | 38662 ft | 491 kts | 141° |
| 2026-04-22 15:27 | -11.73322 | -39.88028 | 38893 ft | 476 kts | 141° |
| 2026-04-22 15:27 | -11.75807 | -39.85867 | 38958 ft | 464 kts | 141° |
| 2026-04-22 15:27 | -11.80686 | -39.81611 | 38918 ft | 465 kts | 141° |
| 2026-04-22 15:28 | -11.83169 | -39.79446 | 38637 ft | 472 kts | 141° |
| 2026-04-22 15:28 | -11.85668 | -39.77266 | 38376 ft | 473 kts | 141° |
| 2026-04-22 15:28 | -11.88167 | -39.75083 | 38047 ft | 473 kts | 141° |
| 2026-04-22 15:28 | -11.90664 | -39.72902 | 37602 ft | 472 kts | 141° |
| 2026-04-22 15:29 | -11.93159 | -39.70721 | 37079 ft | 472 kts | 141° |
| 2026-04-22 15:29 | -11.95651 | -39.68544 | 36518 ft | 472 kts | 141° |
| 2026-04-22 15:29 | -11.98136 | -39.66371 | 35972 ft | 469 kts | 141° |
| 2026-04-22 15:30 | -12.02214 | -39.62805 | 35122 ft | 460 kts | 140° |
| 2026-04-22 15:30 | -12.05440 | -39.59981 | 34482 ft | 453 kts | 140° |
| 2026-04-22 15:30 | -12.07821 | -39.57897 | 34004 ft | 448 kts | 140° |
| 2026-04-22 15:30 | -12.10176 | -39.55832 | 33468 ft | 444 kts | 140° |
| 2026-04-22 15:31 | -12.12502 | -39.53788 | 32912 ft | 436 kts | 140° |
| 2026-04-22 15:31 | -12.14782 | -39.51782 | 31664 ft | 431 kts | 140° |
| 2026-04-22 15:31 | -12.17004 | -39.49825 | 30692 ft | 423 kts | 140° |
| 2026-04-22 15:31 | -12.19237 | -39.47858 | 29653 ft | 414 kts | 140° |
| 2026-04-22 15:32 | -12.21376 | -39.45986 | 28501 ft | 407 kts | 140° |
| 2026-04-22 15:32 | -12.23545 | -39.44098 | 27393 ft | 401 kts | 139° |
| 2026-04-22 15:32 | -12.25623 | -39.42291 | 26375 ft | 395 kts | 139° |
| 2026-04-22 15:32 | -12.27700 | -39.40483 | 25384 ft | 390 kts | 138° |
| 2026-04-22 15:33 | -12.29749 | -39.38695 | 24460 ft | 385 kts | 137° |
| 2026-04-22 15:33 | -12.31748 | -39.36949 | 23565 ft | 380 kts | 136° |
| 2026-04-22 15:33 | -12.33744 | -39.35192 | 22475 ft | 377 kts | 136° |
| 2026-04-22 15:33 | -12.35716 | -39.33436 | 21440 ft | 374 kts | 136° |
| 2026-04-22 15:34 | -12.37671 | -39.31694 | 20434 ft | 372 kts | 137° |
| 2026-04-22 15:34 | -12.39620 | -39.29963 | 19442 ft | 370 kts | 137° |
| 2026-04-22 15:34 | -12.41565 | -39.28235 | 18401 ft | 371 kts | 138° |
| 2026-04-22 15:34 | -12.43522 | -39.26509 | 17357 ft | 370 kts | 138° |
| 2026-04-22 15:35 | -12.44833 | -39.25361 | 16796 ft | 364 kts | 138° |
| 2026-04-22 15:35 | -12.47355 | -39.23161 | 15618 ft | 356 kts | 138° |
| 2026-04-22 15:35 | -12.49221 | -39.21536 | 14762 ft | 349 kts | 139° |
| 2026-04-22 15:35 | -12.51054 | -39.19942 | 13942 ft | 343 kts | 139° |
| 2026-04-22 15:36 | -12.52858 | -39.18375 | 13100 ft | 336 kts | 139° |
| 2026-04-22 15:36 | -12.54628 | -39.16841 | 12315 ft | 333 kts | 138° |
| 2026-04-22 15:36 | -12.56376 | -39.15321 | 12014 ft | 325 kts | 138° |
| 2026-04-22 15:36 | -12.58088 | -39.13828 | 11562 ft | 322 kts | 138° |
| 2026-04-22 15:37 | -12.59780 | -39.12358 | 11313 ft | 313 kts | 138° |
| 2026-04-22 15:37 | -12.61395 | -39.10954 | 11259 ft | 297 kts | 138° |
| 2026-04-22 15:37 | -12.62930 | -39.09618 | 11147 ft | 283 kts | 138° |
| 2026-04-22 15:37 | -12.64418 | -39.08317 | 10810 ft | 280 kts | 137° |
| 2026-04-22 15:38 | -12.65889 | -39.07027 | 10441 ft | 277 kts | 138° |
| 2026-04-22 15:38 | -12.68796 | -39.04483 | 9757 ft | 272 kts | 138° |
| 2026-04-22 15:38 | -12.70228 | -39.03224 | 9323 ft | 271 kts | 138° |
| 2026-04-22 15:39 | -12.71650 | -39.01977 | 8930 ft | 268 kts | 138° |
| 2026-04-22 15:39 | -12.73062 | -39.00735 | 8497 ft | 267 kts | 138° |
| 2026-04-22 15:39 | -12.74465 | -38.99504 | 8076 ft | 264 kts | 138° |
| 2026-04-22 15:39 | -12.75859 | -38.98285 | 7649 ft | 263 kts | 139° |
| 2026-04-22 15:40 | -12.77245 | -38.97079 | 7268 ft | 260 kts | 139° |
| 2026-04-22 15:40 | -12.78613 | -38.95882 | 6880 ft | 258 kts | 139° |
| 2026-04-22 15:40 | -12.79963 | -38.94693 | 6502 ft | 254 kts | 139° |
| 2026-04-22 15:40 | -12.81283 | -38.93530 | 6087 ft | 253 kts | 139° |
| 2026-04-22 15:41 | -12.82616 | -38.92362 | 6004 ft | 253 kts | 139° |
| 2026-04-22 15:41 | -12.83973 | -38.91178 | 6013 ft | 257 kts | 139° |
| 2026-04-22 15:41 | -12.85205 | -38.89873 | 5970 ft | 256 kts | 126° |
| 2026-04-22 15:41 | -12.86128 | -38.88320 | 5838 ft | 255 kts | 119° |
| 2026-04-22 15:42 | -12.86929 | -38.86711 | 5618 ft | 253 kts | 117° |
| 2026-04-22 15:42 | -12.87660 | -38.85076 | 5268 ft | 253 kts | 114° |
| 2026-04-22 15:42 | -12.88338 | -38.83418 | 4952 ft | 251 kts | 113° |
| 2026-04-22 15:42 | -12.88979 | -38.81733 | 4721 ft | 254 kts | 112° |
| 2026-04-22 15:43 | -12.89592 | -38.80049 | 4606 ft | 250 kts | 112° |
| 2026-04-22 15:43 | -12.90186 | -38.78386 | 4554 ft | 249 kts | 111° |
| 2026-04-22 15:43 | -12.90777 | -38.76706 | 4539 ft | 251 kts | 111° |
| 2026-04-22 15:43 | -12.91367 | -38.75020 | 4527 ft | 251 kts | 111° |
| 2026-04-22 15:44 | -12.91952 | -38.73343 | 4523 ft | 249 kts | 111° |
| 2026-04-22 15:44 | -12.92537 | -38.71669 | 4529 ft | 250 kts | 111° |
| 2026-04-22 15:44 | -12.92924 | -38.70553 | 4529 ft | 251 kts | 111° |
| 2026-04-22 15:44 | -12.93541 | -38.68773 | 4526 ft | 252 kts | 111° |
| 2026-04-22 15:45 | -12.94128 | -38.67084 | 4522 ft | 249 kts | 111° |
| 2026-04-22 15:45 | -12.94690 | -38.65474 | 4526 ft | 231 kts | 111° |
| 2026-04-22 15:45 | -12.95211 | -38.63969 | 4522 ft | 217 kts | 111° |
| 2026-04-22 15:45 | -12.95699 | -38.62573 | 4522 ft | 198 kts | 111° |
| 2026-04-22 15:46 | -12.95994 | -38.61704 | 4426 ft | 192 kts | 108° |
| 2026-04-22 15:46 | -12.96141 | -38.59906 | 4084 ft | 191 kts | 91° |
| 2026-04-22 15:46 | -12.96077 | -38.58998 | 3835 ft | 194 kts | 88° |
| 2026-04-22 15:46 | -12.95908 | -38.57623 | 3579 ft | 194 kts | 84° |
| 2026-04-22 15:47 | -12.95687 | -38.56255 | 3488 ft | 195 kts | 81° |
| 2026-04-22 15:47 | -12.95423 | -38.54892 | 3611 ft | 193 kts | 82° |
| 2026-04-22 15:47 | -12.95129 | -38.53561 | 3526 ft | 191 kts | 81° |
| 2026-04-22 15:47 | -12.94850 | -38.52228 | 3274 ft | 191 kts | 82° |
| 2026-04-22 15:48 | -12.94573 | -38.50887 | 2853 ft | 193 kts | 82° |
| 2026-04-22 15:48 | -12.94312 | -38.49637 | 2737 ft | 166 kts | 82° |
| 2026-04-22 15:48 | -12.94093 | -38.48545 | 2566 ft | 152 kts | 83° |
| 2026-04-22 15:48 | -12.93896 | -38.47488 | 2381 ft | 150 kts | 84° |
| 2026-04-22 15:49 | -12.93706 | -38.46468 | 2209 ft | 140 kts | 83° |
| 2026-04-22 15:49 | -12.93516 | -38.45488 | 2024 ft | 143 kts | 83° |
| 2026-04-22 15:49 | -12.93306 | -38.44488 | 1864 ft | 142 kts | 83° |
| 2026-04-22 15:49 | -12.93109 | -38.43486 | 1801 ft | 145 kts | 85° |
| 2026-04-22 15:50 | -12.92910 | -38.42475 | 1765 ft | 142 kts | 83° |
| 2026-04-22 15:50 | -12.92702 | -38.41476 | 1612 ft | 146 kts | 83° |
| 2026-04-22 15:50 | -12.92484 | -38.40453 | 1400 ft | 143 kts | 84° |
| 2026-04-22 15:50 | -12.92309 | -38.39463 | 1249 ft | 142 kts | 84° |
| 2026-04-22 15:51 | -12.92097 | -38.38446 | 995 ft | 148 kts | 82° |
| 2026-04-22 15:51 | -12.91889 | -38.37424 | 803 ft | 146 kts | 84° |
| 2026-04-22 15:51 | -12.91707 | -38.36379 | 678 ft | 149 kts | 83° |
| 2026-04-22 15:51 | -12.91472 | -38.35334 | 535 ft | 151 kts | 79° |
| 2026-04-22 15:52 | -12.91251 | -38.34306 | 331 ft | 141 kts | 82° |
| 2026-04-22 15:52 | -12.91084 | -38.33362 | 118 ft | 127 kts | 83° |
| 2026-04-22 15:52 | -12.90917 | -38.32568 | 52 ft | 91 kts | 78° |
| 2026-04-22 15:52 | -12.90834 | -38.32142 | 50 ft | 46 kts | 78° |
| 2026-04-22 15:53 | -12.90770 | -38.31824 | 44 ft | 26 kts | 78° |
| 2026-04-22 15:53 | -12.90820 | -38.31720 | 46 ft | 13 kts | 166° |
| 2026-04-22 15:53 | -12.90905 | -38.31727 | 52 ft | 7 kts | 221° |
| 2026-04-22 15:53 | -12.90924 | -38.31797 | 51 ft | 15 kts | 260° |
| 2026-04-22 15:54 | -12.90952 | -38.31939 | 56 ft | 26 kts | 258° |
| 2026-04-22 15:54 | -12.90995 | -38.32148 | 54 ft | 34 kts | 258° |
| 2026-04-22 15:54 | -12.91049 | -38.32415 | 50 ft | 42 kts | 258° |
| 2026-04-22 15:54 | -12.91113 | -38.32735 | 48 ft | 50 kts | 258° |
| 2026-04-22 15:55 | -12.91184 | -38.33092 | 47 ft | 41 kts | 258° |
| 2026-04-22 15:55 | -12.91221 | -38.33173 | 46 ft | 6 kts | 199° |
| 2026-04-22 15:55 | -12.91286 | -38.33194 | 45 ft | 12 kts | 206° |
| 2026-04-22 15:55 | -12.91332 | -38.33219 | 46 ft | 4 kts | 208° |
| 2026-04-22 15:56 | -12.91346 | -38.33227 | 46 ft | 0 kts | 208° |